createdAt,value
2023-03-15T00:02:06.068Z,1.70
2023-03-15T00:04:51.783Z,2.88
2023-03-15T00:07:36.758Z,2.85
2023-03-15T00:10:22.237Z,2.17
2023-03-15T00:13:07.808Z,2.60
2023-03-15T00:15:58.278Z,2.13
2023-03-15T00:18:43.559Z,2.00
2023-03-15T00:21:31.561Z,2.33
2023-03-15T00:24:16.947Z,2.85
2023-03-15T00:27:02.001Z,2.25
2023-03-15T00:29:47.314Z,2.13
2023-03-15T00:32:32.580Z,2.05
2023-03-15T00:35:18.317Z,2.33
2023-03-15T00:38:05.465Z,1.73
2023-03-15T00:40:50.829Z,1.40
2023-03-15T00:43:36.250Z,2.00
2023-03-15T00:46:21.451Z,2.00
2023-03-15T00:49:06.570Z,2.00
2023-03-15T00:51:54.980Z,2.10
2023-03-15T00:54:41.776Z,2.53
2023-03-15T00:57:27.262Z,1.73
2023-03-15T01:00:20.506Z,2.17
2023-03-15T01:03:05.534Z,2.13
2023-03-15T01:05:51.036Z,1.92
2023-03-15T01:08:36.361Z,1.70
2023-03-15T01:11:24.308Z,1.75
2023-03-15T01:14:09.939Z,2.20
2023-03-15T01:16:55.580Z,1.92
2023-03-15T01:19:40.462Z,1.77
2023-03-15T01:22:26.788Z,1.42
2023-03-15T01:25:12.156Z,1.85
2023-03-15T01:27:59.042Z,1.92
2023-03-15T01:30:54.245Z,2.33
2023-03-15T01:33:40.782Z,2.15
2023-03-15T01:36:25.959Z,2.05
2023-03-15T01:39:11.531Z,2.10
2023-03-15T01:41:59.706Z,2.10
2023-03-15T01:44:50.662Z,2.00
2023-03-15T01:47:36.224Z,1.75
2023-03-15T01:50:25.350Z,2.33
2023-03-15T01:53:11.487Z,2.08
2023-03-15T01:55:58.133Z,1.65
2023-03-15T01:58:53.684Z,1.77
2023-03-15T02:01:45.454Z,2.35
2023-03-15T02:04:36.315Z,1.80
2023-03-15T02:07:24.758Z,2.10
2023-03-15T02:10:14.516Z,2.15
2023-03-15T02:13:03.615Z,2.30
2023-03-15T02:15:49.412Z,1.90
2023-03-15T02:18:43.228Z,1.90
2023-03-15T02:21:56.594Z,2.65
2023-03-15T02:24:55.077Z,1.85
2023-03-15T02:27:44.639Z,2.75
2023-03-15T02:30:30.075Z,1.50
2023-03-15T02:33:25.061Z,2.15
2023-03-15T02:36:19.847Z,2.17
2023-03-15T02:39:20.712Z,2.10
2023-03-15T02:42:06.162Z,1.98
2023-03-15T02:44:51.680Z,3.10
2023-03-15T02:47:38.342Z,1.77
2023-03-15T02:50:23.617Z,1.95
2023-03-15T02:53:10.011Z,1.92
2023-03-15T02:55:55.200Z,1.77
2023-03-15T02:58:40.814Z,1.70
2023-03-15T03:01:26.475Z,2.38
2023-03-15T03:04:11.613Z,2.28
2023-03-15T03:06:57.521Z,2.55
2023-03-15T03:09:51.077Z,1.60
2023-03-15T03:12:38.128Z,2.55
2023-03-15T03:15:23.298Z,2.05
2023-03-15T03:18:08.864Z,2.13
2023-03-15T03:20:59.080Z,2.33
2023-03-15T03:23:46.215Z,2.88
2023-03-15T03:26:32.745Z,1.80
2023-03-15T03:29:18.420Z,2.00
2023-03-15T03:32:06.491Z,2.03
2023-03-15T03:34:51.694Z,2.20
2023-03-15T03:37:40.184Z,2.10
2023-03-15T03:40:31.782Z,1.90
2023-03-15T03:43:17.129Z,1.90
2023-03-15T03:46:03.718Z,2.13
2023-03-15T03:48:50.530Z,1.63
2023-03-15T03:51:36.298Z,1.98
2023-03-15T03:54:21.780Z,2.03
2023-03-15T03:57:07.054Z,1.67
2023-03-15T03:59:54.184Z,1.95
2023-03-15T04:02:42.577Z,2.05
2023-03-15T04:05:29.182Z,2.08
2023-03-15T04:08:14.431Z,1.90
2023-03-15T04:10:59.906Z,2.97
2023-03-15T04:13:48.116Z,2.15
2023-03-15T04:16:33.250Z,1.50
2023-03-15T04:19:21.782Z,2.45
2023-03-15T04:22:10.187Z,2.35
2023-03-15T04:25:19.577Z,3.40
2023-03-15T04:28:30.820Z,1.75
2023-03-15T04:31:28.497Z,2.30
2023-03-15T04:34:39.752Z,2.72
2023-03-15T04:37:32.550Z,2.67
2023-03-15T04:40:36.256Z,2.88
2023-03-15T04:43:47.632Z,2.13
2023-03-15T04:46:44.493Z,2.85
2023-03-15T04:50:09.689Z,2.42
2023-03-15T04:53:10.693Z,2.03
2023-03-15T04:56:06.918Z,2.75
2023-03-15T04:59:14.038Z,2.83
2023-03-15T05:02:28.596Z,2.30
2023-03-15T05:05:26.445Z,2.28
2023-03-15T05:08:24.089Z,4.00
2023-03-15T05:11:27.916Z,3.25
2023-03-15T05:14:42.188Z,2.70
2023-03-15T05:17:48.592Z,2.42
2023-03-15T05:21:05.985Z,3.67
2023-03-15T05:24:17.242Z,3.28
2023-03-15T05:27:25.281Z,3.78
2023-03-15T05:30:31.271Z,4.13
2023-03-15T05:33:36.036Z,2.72
2023-03-15T05:36:47.540Z,2.33
2023-03-15T05:39:51.847Z,2.45
2023-03-15T05:43:00.363Z,2.40
2023-03-15T05:45:59.393Z,2.17
2023-03-15T05:48:56.699Z,2.70
2023-03-15T05:51:56.608Z,2.80
2023-03-15T05:55:01.703Z,2.58
2023-03-15T05:57:58.859Z,2.33
2023-03-15T06:01:12.959Z,3.28
2023-03-15T06:04:15.417Z,3.17
2023-03-15T06:07:00.659Z,2.45
2023-03-15T06:09:47.002Z,2.83
2023-03-15T06:12:32.705Z,2.47
2023-03-15T06:15:19.740Z,2.45
2023-03-15T06:18:06.297Z,2.80
2023-03-15T06:20:51.525Z,2.65
2023-03-15T06:23:37.940Z,2.30
2023-03-15T06:26:23.312Z,2.60
2023-03-15T06:29:13.744Z,3.28
2023-03-15T06:31:58.885Z,2.17
2023-03-15T06:34:45.833Z,2.47
2023-03-15T06:37:35.593Z,2.00
2023-03-15T06:40:21.571Z,2.83
2023-03-15T06:43:08.209Z,2.20
2023-03-15T06:45:55.857Z,2.15
2023-03-15T06:48:41.956Z,2.65
2023-03-15T06:51:29.478Z,2.80
2023-03-15T06:54:14.744Z,2.08
2023-03-15T06:57:00.217Z,2.80
2023-03-15T06:59:45.502Z,3.05
2023-03-15T07:02:36.933Z,2.83
2023-03-15T07:05:22.385Z,2.50
2023-03-15T07:08:07.901Z,2.63
2023-03-15T07:10:53.274Z,2.90
2023-03-15T07:13:38.372Z,2.40
2023-03-15T07:16:24.284Z,2.22
2023-03-15T07:19:09.516Z,3.30
2023-03-15T07:21:54.989Z,2.75
2023-03-15T07:24:40.732Z,2.47
2023-03-15T07:27:26.079Z,2.28
2023-03-15T07:30:11.939Z,2.67
2023-03-15T07:32:57.149Z,2.47
2023-03-15T07:35:42.546Z,2.97
2023-03-15T07:38:31.275Z,3.67
2023-03-15T07:41:16.574Z,3.88
2023-03-15T07:44:13.675Z,2.95
2023-03-15T07:46:59.120Z,3.03
2023-03-15T07:49:44.247Z,3.58
2023-03-15T07:52:29.621Z,2.78
2023-03-15T07:55:15.182Z,3.17
2023-03-15T07:58:01.675Z,3.33
2023-03-15T08:00:47.183Z,3.17
2023-03-15T08:03:32.810Z,3.85
2023-03-15T08:06:18.370Z,3.33
2023-03-15T08:09:05.651Z,3.35
2023-03-15T08:11:51.306Z,3.08
2023-03-15T08:14:37.156Z,3.38
2023-03-15T08:17:22.730Z,3.30
2023-03-15T08:20:11.539Z,3.72
2023-03-15T08:22:56.820Z,4.50
2023-03-15T08:25:44.086Z,3.97
2023-03-15T08:28:29.576Z,3.58
2023-03-15T08:31:15.053Z,2.72
2023-03-15T08:34:00.254Z,3.28
2023-03-15T08:36:48.816Z,3.85
2023-03-15T08:39:36.210Z,2.70
2023-03-15T08:42:22.035Z,4.03
2023-03-15T08:45:08.310Z,3.78
2023-03-15T08:48:01.318Z,3.40
2023-03-15T08:50:46.583Z,3.13
2023-03-15T08:53:32.346Z,3.65
2023-03-15T08:56:17.490Z,4.97
2023-03-15T08:59:02.744Z,3.38
2023-03-15T09:01:48.394Z,3.50
2023-03-15T09:04:34.279Z,4.15
2023-03-15T09:07:20.630Z,3.95
2023-03-15T09:10:06.172Z,4.32
2023-03-15T09:12:53.595Z,3.55
2023-03-15T09:15:39.067Z,3.72
2023-03-15T09:18:24.891Z,4.25
2023-03-15T09:21:10.821Z,3.63
2023-03-15T09:23:56.226Z,3.42
2023-03-15T09:26:41.543Z,3.40
2023-03-15T09:29:27.121Z,3.63
2023-03-15T09:32:14.078Z,3.25
2023-03-15T09:34:59.417Z,3.83
2023-03-15T09:37:44.912Z,3.03
2023-03-15T09:40:33.901Z,3.00
2023-03-15T09:43:44.006Z,3.60
2023-03-15T09:46:44.585Z,3.65
2023-03-15T09:49:45.278Z,3.28
2023-03-15T09:52:41.153Z,3.78
2023-03-15T09:55:28.693Z,2.80
2023-03-15T09:58:21.225Z,3.35
2023-03-15T10:01:12.760Z,3.47
2023-03-15T10:03:59.729Z,2.72
2023-03-15T10:06:51.908Z,3.08
2023-03-15T10:09:37.581Z,3.58
2023-03-15T10:12:29.513Z,3.42
2023-03-15T10:15:20.741Z,3.38
2023-03-15T10:18:12.162Z,3.03
2023-03-15T10:21:07.505Z,3.05
2023-03-15T10:23:54.215Z,3.63
2023-03-15T10:26:39.929Z,3.10
2023-03-15T10:29:26.850Z,3.28
2023-03-15T10:32:17.913Z,3.00
2023-03-15T10:35:14.037Z,2.95
2023-03-15T10:37:59.393Z,2.63
2023-03-15T10:40:45.795Z,2.65
2023-03-15T10:43:36.790Z,3.28
2023-03-15T10:46:23.820Z,3.00
2023-03-15T10:49:16.090Z,2.47
2023-03-15T10:52:01.398Z,2.60
2023-03-15T10:54:50.075Z,2.20
2023-03-15T10:57:41.317Z,2.55
2023-03-15T11:00:31.741Z,2.35
2023-03-15T11:03:16.854Z,3.53
2023-03-15T11:06:03.031Z,2.28
2023-03-15T11:08:48.742Z,2.40
2023-03-15T11:11:58.916Z,2.50
2023-03-15T11:14:48.660Z,2.28
2023-03-15T11:17:42.228Z,2.95
2023-03-15T11:20:36.381Z,2.70
2023-03-15T11:23:26.353Z,2.60
2023-03-15T11:26:38.511Z,2.70
2023-03-15T11:29:31.593Z,2.22
2023-03-15T11:32:21.320Z,1.70
2023-03-15T11:35:13.909Z,2.72
2023-03-15T11:38:15.181Z,2.30
2023-03-15T11:41:23.994Z,2.60
2023-03-15T11:44:33.929Z,2.30
2023-03-15T11:47:45.534Z,1.80
2023-03-15T11:50:33.194Z,2.03
2023-03-15T11:53:18.532Z,2.30
2023-03-15T11:56:39.933Z,2.03
2023-03-15T11:59:38.046Z,2.10
2023-03-15T12:02:23.205Z,2.28
2023-03-15T12:05:44.691Z,1.95
2023-03-15T12:08:38.794Z,2.65
2023-03-15T12:11:24.490Z,1.98
2023-03-15T12:14:29.979Z,1.98
2023-03-15T12:17:24.595Z,2.92
2023-03-15T12:20:17.694Z,2.15
2023-03-15T12:23:13.179Z,2.15
2023-03-15T12:26:06.885Z,2.78
2023-03-15T12:29:00.979Z,2.03
2023-03-15T12:32:08.730Z,2.08
2023-03-15T12:34:57.691Z,2.08
2023-03-15T12:37:46.235Z,1.93
2023-03-15T12:40:38.857Z,2.42
2023-03-15T12:43:46.105Z,2.25
2023-03-15T12:46:54.288Z,2.63
2023-03-15T12:49:45.005Z,2.30
2023-03-15T12:52:41.874Z,2.38
2023-03-15T12:55:35.625Z,2.63
2023-03-15T12:58:28.530Z,2.22
2023-03-15T13:01:16.808Z,1.98
2023-03-15T13:04:03.861Z,2.10
2023-03-15T13:07:24.657Z,2.42
2023-03-15T13:10:31.342Z,2.05
2023-03-15T13:13:44.976Z,2.20
2023-03-15T13:16:44.423Z,3.20
2023-03-15T13:19:41.736Z,2.20
2023-03-15T13:22:49.947Z,2.33
2023-03-15T13:26:23.303Z,2.22
2023-03-15T13:29:17.468Z,2.00
2023-03-15T13:32:15.513Z,2.42
2023-03-15T13:35:02.084Z,2.00
2023-03-15T13:37:47.367Z,2.17
2023-03-15T13:40:33.014Z,1.88
2023-03-15T13:43:18.269Z,1.63
2023-03-15T13:46:03.934Z,2.13
2023-03-15T13:48:50.645Z,1.92
2023-03-15T13:51:39.225Z,2.30
2023-03-15T13:54:30.691Z,2.40
2023-03-15T13:57:20.327Z,1.98
2023-03-15T14:00:12.322Z,2.53
2023-03-15T14:03:01.611Z,2.35
2023-03-15T14:05:49.686Z,2.58
2023-03-15T14:08:38.974Z,2.40
2023-03-15T14:11:24.197Z,2.47
2023-03-15T14:14:21.619Z,2.30
2023-03-15T14:17:25.012Z,2.30
2023-03-15T14:20:16.412Z,1.70
2023-03-15T14:23:04.367Z,1.45
2023-03-15T14:25:54.913Z,1.88
2023-03-15T14:28:41.579Z,2.20
2023-03-15T14:31:30.570Z,2.53
2023-03-15T14:34:33.522Z,1.73
2023-03-15T14:37:31.054Z,1.33
2023-03-15T14:40:20.126Z,1.92
2023-03-15T14:43:07.673Z,2.22
2023-03-15T14:45:54.053Z,2.15
2023-03-15T14:48:39.924Z,1.65
2023-03-15T14:51:28.416Z,1.35
2023-03-15T14:54:13.771Z,1.42
2023-03-15T14:56:58.988Z,1.27
2023-03-15T14:59:44.154Z,1.27
2023-03-15T15:02:29.838Z,1.73
2023-03-15T15:05:29.207Z,1.35
2023-03-15T15:11:02.660Z,2.15
2023-03-15T15:13:48.479Z,1.65
2023-03-15T15:16:34.063Z,1.58
2023-03-15T15:19:19.586Z,2.33
2023-03-15T15:22:04.950Z,2.05
2023-03-15T15:24:51.450Z,1.75
2023-03-15T15:27:36.553Z,1.50
2023-03-15T15:30:24.922Z,1.15
2023-03-15T15:33:11.565Z,1.40
2023-03-15T15:35:57.934Z,1.83
2023-03-15T15:38:43.668Z,2.17
2023-03-15T15:41:31.376Z,2.00
2023-03-15T15:44:19.375Z,1.65
2023-03-15T15:47:07.256Z,2.50
2023-03-15T15:49:52.395Z,1.40
2023-03-15T15:52:40.564Z,1.95
2023-03-15T15:55:28.937Z,1.88
2023-03-15T15:58:15.198Z,2.17
2023-03-15T16:01:00.640Z,1.75
2023-03-15T16:03:45.893Z,2.00
2023-03-15T16:06:31.700Z,1.83
2023-03-15T16:09:18.675Z,1.85
2023-03-15T16:12:12.931Z,1.67
2023-03-15T16:14:58.803Z,1.48
2023-03-15T16:17:45.214Z,1.80
2023-03-15T16:20:30.431Z,1.55
2023-03-15T16:23:21.872Z,1.45
2023-03-15T16:26:16.200Z,3.40
2023-03-15T16:29:02.606Z,1.38
2023-03-15T16:31:48.439Z,0.85
2023-03-15T16:34:34.534Z,1.30
2023-03-15T16:37:26.129Z,1.48
2023-03-15T16:40:25.329Z,1.05
2023-03-15T16:43:14.523Z,1.23
2023-03-15T16:45:59.932Z,1.08
2023-03-15T16:48:45.201Z,1.40
2023-03-15T16:51:31.664Z,1.20
2023-03-15T16:54:30.523Z,1.02
2023-03-15T16:57:22.718Z,1.10
2023-03-15T17:00:18.351Z,1.30
2023-03-15T17:03:04.487Z,1.55
2023-03-15T17:05:49.730Z,1.50
2023-03-15T17:08:35.059Z,2.30
2023-03-15T17:11:20.257Z,1.98
2023-03-15T17:14:07.247Z,2.47
2023-03-15T17:16:53.056Z,2.30
2023-03-15T17:19:38.416Z,2.20
2023-03-15T17:22:25.406Z,2.40
2023-03-15T17:25:11.715Z,1.70
2023-03-15T17:27:57.043Z,2.85
2023-03-15T17:30:42.617Z,2.78
2023-03-15T17:33:27.745Z,3.35
2023-03-15T17:36:14.744Z,2.72
2023-03-15T17:39:00.151Z,2.67
2023-03-15T17:41:48.255Z,1.85
2023-03-15T17:44:33.589Z,2.50
2023-03-15T17:47:19.160Z,2.65
2023-03-15T17:50:04.763Z,2.30
2023-03-15T17:52:55.251Z,2.25
2023-03-15T17:55:40.808Z,2.60
2023-03-15T17:58:27.312Z,2.00
2023-03-15T18:01:16.271Z,2.17
2023-03-15T18:04:01.316Z,2.33
2023-03-15T18:06:46.635Z,2.78
2023-03-15T18:09:31.981Z,2.42
2023-03-15T18:12:18.200Z,2.45
2023-03-15T18:15:05.102Z,2.80
2023-03-15T18:17:50.840Z,2.60
2023-03-15T18:20:36.477Z,2.50
2023-03-15T18:23:21.623Z,2.53
2023-03-15T18:26:07.155Z,2.08
2023-03-15T18:28:52.418Z,2.28
2023-03-15T18:31:37.662Z,2.72
2023-03-15T18:34:23.434Z,2.55
2023-03-15T18:37:09.700Z,2.03
2023-03-15T18:39:55.078Z,2.22
2023-03-15T18:42:41.658Z,2.95
2023-03-15T18:45:30.785Z,2.22
2023-03-15T18:48:18.353Z,2.13
2023-03-15T18:51:05.287Z,2.17
2023-03-15T18:53:50.823Z,2.13
2023-03-15T18:56:36.349Z,2.65
2023-03-15T18:59:22.082Z,3.42
2023-03-15T19:02:09.794Z,4.13
2023-03-15T19:04:57.990Z,3.28
2023-03-15T19:07:43.294Z,2.92
2023-03-15T19:10:28.603Z,3.13
2023-03-15T19:13:13.885Z,2.88
2023-03-15T19:15:59.224Z,3.47
2023-03-15T19:18:44.972Z,3.35
2023-03-15T19:21:29.993Z,4.13
2023-03-15T19:24:15.135Z,4.20
2023-03-15T19:27:00.621Z,3.72
2023-03-15T19:29:46.420Z,3.50
2023-03-15T19:32:31.448Z,3.70
2023-03-15T19:35:18.854Z,2.80
2023-03-15T19:38:04.100Z,3.60
2023-03-15T19:40:55.004Z,3.67
2023-03-15T19:43:43.300Z,3.80
2023-03-15T19:46:28.531Z,4.28
2023-03-15T19:49:13.936Z,4.03
2023-03-15T19:51:59.408Z,3.40
2023-03-15T19:54:44.522Z,2.92
2023-03-15T19:57:30.381Z,2.92
2023-03-15T20:00:18.412Z,3.08
2023-03-15T20:03:04.351Z,3.03
2023-03-15T20:05:49.913Z,3.63
2023-03-15T20:08:35.740Z,2.78
2023-03-15T20:11:25.003Z,2.60
2023-03-15T20:14:11.084Z,2.90
2023-03-15T20:16:56.306Z,3.38
2023-03-15T20:19:42.133Z,3.17
2023-03-15T20:22:27.511Z,3.17
2023-03-15T20:25:17.543Z,4.20
2023-03-15T20:28:04.268Z,2.65
2023-03-15T20:30:49.454Z,3.50
2023-03-15T20:33:35.683Z,2.85
2023-03-15T20:36:21.899Z,3.20
2023-03-15T20:39:07.925Z,2.75
2023-03-15T20:41:53.484Z,2.88
2023-03-15T20:44:41.475Z,3.22
2023-03-15T20:47:26.852Z,3.40
2023-03-15T20:50:13.235Z,2.90
2023-03-15T20:53:00.727Z,2.92
2023-03-15T20:55:45.897Z,3.05
2023-03-15T20:58:31.979Z,3.08
2023-03-15T21:01:17.728Z,2.60
2023-03-15T21:04:03.022Z,2.90
2023-03-15T21:06:49.505Z,2.58
2023-03-15T21:09:35.376Z,2.60
2023-03-15T21:12:20.721Z,2.75
2023-03-15T21:15:06.934Z,2.35
2023-03-15T21:17:52.923Z,2.67
2023-03-15T21:20:38.392Z,3.10
2023-03-15T21:23:24.170Z,2.80
2023-03-15T21:26:11.935Z,2.58
2023-03-15T21:28:57.395Z,2.78
2023-03-15T21:31:42.603Z,3.50
2023-03-15T21:34:28.355Z,3.40
2023-03-15T21:37:13.560Z,2.88
2023-03-15T21:40:00.100Z,3.78
2023-03-15T21:42:47.635Z,3.28
2023-03-15T21:45:33.212Z,3.80
2023-03-15T21:48:19.210Z,3.00
2023-03-15T21:51:05.597Z,3.65
2023-03-15T21:53:51.213Z,3.20
2023-03-15T21:56:36.360Z,3.20
2023-03-15T21:59:28.190Z,3.05
2023-03-15T22:02:14.157Z,2.50
2023-03-15T22:04:59.669Z,2.58
2023-03-15T22:07:44.865Z,2.58
2023-03-15T22:10:30.384Z,2.90
2023-03-15T22:13:15.656Z,2.90
2023-03-15T22:16:01.397Z,3.97
2023-03-15T22:18:47.018Z,3.15
2023-03-15T22:21:33.193Z,2.97
2023-03-15T22:24:18.524Z,3.60
2023-03-15T22:27:04.037Z,3.33
2023-03-15T22:29:49.469Z,2.78
2023-03-15T22:32:35.166Z,2.88
2023-03-15T22:35:20.484Z,2.70
2023-03-15T22:38:10.040Z,2.60
2023-03-15T22:41:04.170Z,2.10
2023-03-15T22:43:49.552Z,4.00
2023-03-15T22:46:35.935Z,3.08
2023-03-15T22:49:22.932Z,3.05
2023-03-15T22:52:08.651Z,2.85
2023-03-15T22:54:54.373Z,3.22
2023-03-15T22:57:39.872Z,3.65
2023-03-15T23:00:25.340Z,2.60
2023-03-15T23:03:11.495Z,3.10
2023-03-15T23:05:57.327Z,2.88
2023-03-15T23:08:42.783Z,3.22
2023-03-15T23:11:28.040Z,3.55
2023-03-15T23:14:13.472Z,3.47
2023-03-15T23:16:59.210Z,3.20
2023-03-15T23:19:44.844Z,3.85
2023-03-15T23:22:30.321Z,3.20
2023-03-15T23:25:21.478Z,3.15
2023-03-15T23:28:07.522Z,2.92
2023-03-15T23:30:52.678Z,3.03
2023-03-15T23:33:38.154Z,4.10
2023-03-15T23:36:23.532Z,3.65
2023-03-15T23:39:09.148Z,2.72
2023-03-15T23:41:57.781Z,3.33
2023-03-15T23:44:43.404Z,3.90
2023-03-15T23:47:28.762Z,3.63
2023-03-15T23:50:14.484Z,3.08
2023-03-15T23:52:59.594Z,3.83
2023-03-15T23:55:45.450Z,4.38
2023-03-15T23:58:30.982Z,3.38
